Overview Statistics Trail Chart Weather Telemetry Raw packets
 

This is the latest recevied telemetry packets stored in our database for station/object OE6HEF-8. If no packets are shown the sender has not sent any telemetry packets the latest 10 day(s).

Telemetry packets is used to share measurements like repeteater parameters, battery voltage, radiation readings (or any other measurements).

<< 1 2 3 4 >>
Time Press* Temp.in* Hum* QNH* Temp.out*
1788694344 934.5 hPa 32.5 C deg 16.7 % 1020.2 hPa 24.8 C deg
1788691712 938.9 hPa 27.7 C deg 15.9 % 1026.4 hPa 15.8 C deg
1788688979 939.1 hPa 26.7 C deg 16 % 1027 hPa 14.4 C deg
1788687600 939.4 hPa 26.2 C deg 16 % 1027.4 hPa 13.8 C deg
1788687440 939.4 hPa 26.2 C deg 16 % 1027.5 hPa 13.8 C deg
1788685643 939.9 hPa 25.7 C deg 15.9 % 1028.1 hPa 12.9 C deg
1788685307 939.9 hPa 25.5 C deg 16 % 1028.2 hPa 12.8 C deg
1788683769 940.1 hPa 25.2 C deg 15.9 % 1028.5 hPa 12.4 C deg
1788681943 940.3 hPa 24.9 C deg 15.8 % 1028.8 hPa 11.9 C deg
1788680174 940.4 hPa 24.8 C deg 15.7 % 1029 hPa 11.6 C deg
1788678324 940.4 hPa 24.5 C deg 15.8 % 1029.1 hPa 11.2 C deg
1788676502 940.4 hPa 24.3 C deg 15.9 % 1029.1 hPa 11.1 C deg
1788674194 940.4 hPa 24.3 C deg 15.9 % 1029.1 hPa 11 C deg
1788672370 940.3 hPa 24.2 C deg 16 % 1029 hPa 10.9 C deg
1788672303 940.3 hPa 24.2 C deg 16 % 1029 hPa 11 C deg
1788670486 940.1 hPa 24.5 C deg 15.9 % 1028.7 hPa 11.2 C deg
1788670411 940.1 hPa 24.5 C deg 15.9 % 1028.7 hPa 11.2 C deg
1788668595 939.9 hPa 24.7 C deg 15.9 % 1028.5 hPa 11.3 C deg
1788668318 939.9 hPa 24.7 C deg 15.9 % 1028.4 hPa 11.4 C deg
1788666490 939.6 hPa 25 C deg 15.9 % 1028 hPa 11.7 C deg
1788666250 939.6 hPa 25.1 C deg 15.9 % 1028 hPa 11.7 C deg
1788664441 939.5 hPa 24.8 C deg 16.4 % 1028 hPa 12 C deg
1788662626 939.4 hPa 25.1 C deg 16.4 % 1027.7 hPa 12.3 C deg
1788661178 939.3 hPa 25.3 C deg 16.4 % 1027.6 hPa 12.5 C deg
1788659966 939.3 hPa 25.6 C deg 16.4 % 1027.5 hPa 12.8 C deg
*Used Equation Coefficients:
Press: 0, 1, 0
Temp.in: 0, 1, 0
Hum: 0, 1, 0
QNH: 0, 1, 0
Temp.out: 0, 1, 0

  • The parameter names for the analog channels will be Value1, Value2, Value3 (up to Value5) if station has not sent a PARAM-packet that specifies the parameter names for each analog channel.
  • Each analog value is a decimal number between 000 and 255 (according to APRS specifications). The receiver use the telemetry equation coefficientsto to restore the original sensor values. If no EQNS-packet with equation coefficients is sent we will show the values as is (this corresponds to the equation coefficients a=0, b=1 and c=0).
    The sent equation coefficients is used in the equation: a * value2 + b * value + c.
  • The units for the analog values will not be shown if station has not sent a UNIT-packet specifying what unit's to use.
  • The parameter names for the digital bits will be Bit1, Bit2, Bit3 (up to Bit8) if station has not sent a PARAM-packet that specifies the parameter names for each digital bit.
  • All bit labels will be named "On" if station has not sent a UNIT-packet that specifies the label of each bit.
  • A bit is considered to be On when the bit is 1 if station has not sent a BITS-packet that specifies another "Bit sense" (a BITS-packet specify the state of the bits that match the BIT labels)